Weather History for Sheboygan, WI

Change the Weather History Date:

Wednesday, February 29, 2012

  Actual Average Record
Temperature  
Mean Temperature 35 °F -  
Max Temperature 42 °F - 55 °F (1964)
Min Temperature 28 °F - -1 °F (1980)
Degree Days  
Heating Degree Days 30    
Moisture  
Dew Point 33 °F    
Average Humidity 92    
Maximum Humidity 100    
Minimum Humidity 70    
Precipitation  
Precipitation 0.51 in - - ()
Sea Level Pressure  
Sea Level Pressure 29.53 in    
Wind  
Wind Speed 14 mph (South)    
Max Wind Speed 24 mph    
Max Gust Speed 32 mph    
Visibility 4 miles    
Events Rain , Snow , Thunderstorm    
Averages and records for this station are not official NWS values.
T = Trace of Precipitation, MM = Missing Value Source: NWS Daily Summary

Daily Weather History Graph

Daily Weather History Graph

Search for Another Location

Airport:

Trip Planner

Search our weather history database for the weather conditions in past years. The results will help you decide how hot, cold, wet, or windy it might be!

Date:

Astronomy

Feb. 29, 2012 Rise Set
Actual Time 6:28 AM CST 5:39 PM CST
Civil Twilight 6:00 AM CST 6:08 PM CST
Nautical Twilight 5:26 AM CST 6:41 PM CST
Astronomical Twilight 4:53 AM CST 7:14 PM CST
Moon 10:04 AM CST (2/29) 12:41 AM CST (2/29)
Length of Visible Light 12h 08m
Length of Day
11h 10m
Waxing Crescent, 47% of the Moon is Illuminated
Feb 29
Waxing Crescent
Feb 29
First Quarter
Mar 8
Full
Mar 14
Last Quarter
Mar 22
New

Hourly Weather History & Observations

Time (CST) Temp. Windchill Dew Point Humidity Pressure Visibility Wind Dir Wind Speed Gust Speed Precip Events Conditions
12:53 AM 35.1 °F 24.8 °F 30.9 °F 85% 29.89 in 5.0 mi East 17.3 mph 24.2 mph 0.04 in Rain Light Rain
1:43 AM 35.6 °F 25.9 °F 32.0 °F 87% 29.81 in 6.0 mi East 16.1 mph 25.3 mph 0.01 in Rain Light Rain
1:53 AM 35.1 °F 25.9 °F 32.0 °F 89% 29.81 in 5.0 mi East 13.8 mph 23.0 mph 0.01 in Rain Light Rain
2:01 AM 35.6 °F 26.2 °F 32.0 °F 87% 29.78 in 4.0 mi East 15.0 mph 26.5 mph 0.00 in Rain Light Rain
2:42 AM 35.6 °F 25.9 °F 32.0 °F 87% 29.74 in 3.0 mi East 16.1 mph 28.8 mph 0.04 in Rain Rain
2:51 AM 35.6 °F 26.2 °F 33.8 °F 93% 29.73 in 2.5 mi East 15.0 mph 27.6 mph 0.07 in Rain Rain
2:53 AM 35.1 °F 24.8 °F 33.1 °F 92% 29.75 in 3.0 mi East 17.3 mph 27.6 mph 0.07 in Rain Rain
3:53 AM 35.1 °F 23.8 °F 33.1 °F 92% 29.71 in 3.0 mi East 20.7 mph 31.1 mph 0.06 in Rain Light Rain
3:59 AM 35.6 °F 25.9 °F 33.8 °F 93% 29.68 in 1.8 mi ESE 16.1 mph 32.2 mph 0.03 in Rain Heavy Rain
4:13 AM 35.6 °F 23.7 °F 33.8 °F 93% 29.66 in 3.0 mi ESE 24.2 mph 32.2 mph 0.06 in Rain Light Rain
4:23 AM 35.6 °F 26.6 °F 33.8 °F 93% 29.67 in 2.5 mi ESE 13.8 mph 26.5 mph 0.08 in Rain Light Rain
4:33 AM 35.6 °F 24.5 °F 33.8 °F 93% 29.65 in 3.0 mi ESE 20.7 mph 28.8 mph 0.09 in Rain , Thunderstorm Light Rain
4:46 AM 35.6 °F 25.5 °F 33.8 °F 93% 29.67 in 1.8 mi ESE 17.3 mph 28.8 mph 0.18 in Rain , Thunderstorm Heavy Rain
4:51 AM 35.6 °F 25.2 °F 33.8 °F 93% 29.65 in 2.0 mi East 18.4 mph 28.8 mph 0.20 in Rain Rain
4:53 AM 35.1 °F 23.8 °F 33.1 °F 92% 29.67 in 2.0 mi ESE 20.7 mph 28.8 mph 0.21 in Rain Rain
5:09 AM 35.6 °F 25.9 °F 33.8 °F 93% 29.62 in 3.0 mi East 16.1 mph 27.6 mph 0.02 in Rain Light Rain
5:53 AM 35.1 °F 23.8 °F 33.1 °F 92% 29.59 in 7.0 mi ESE 20.7 mph 32.2 mph 0.03 in Rain Light Rain
6:53 AM 36.0 °F 28.0 °F 34.0 °F 93% 29.58 in 7.0 mi ESE 11.5 mph 27.6 mph 0.00 in Rain Light Rain
7:20 AM 35.6 °F 25.9 °F 33.8 °F 93% 29.55 in 2.0 mi ESE 16.1 mph 23.0 mph 0.01 in Rain Light Rain
7:35 AM 35.6 °F 26.2 °F 33.8 °F 93% 29.53 in 4.0 mi ESE 15.0 mph 24.2 mph 0.01 in Rain Light Rain
7:53 AM 36.0 °F 27.5 °F 35.1 °F 97% 29.54 in 3.0 mi ESE 12.7 mph 21.9 mph 0.01 in   Overcast
8:13 AM 37.4 °F 26.9 °F 35.6 °F 93% 29.50 in 2.5 mi ESE 20.7 mph 28.8 mph N/A   Overcast
8:24 AM 35.6 °F 25.5 °F 35.6 °F 100% 29.51 in 3.0 mi ESE 17.3 mph 27.6 mph N/A   Overcast
8:33 AM 35.6 °F 24.5 °F 35.6 °F 100% 29.50 in 2.5 mi ESE 20.7 mph 29.9 mph N/A   Overcast
8:53 AM 37.0 °F 27.7 °F 35.1 °F 93% 29.52 in 2.0 mi SE 16.1 mph 26.5 mph 0.00 in   Overcast
9:37 AM 37.4 °F 29.3 °F 35.6 °F 93% 29.47 in 3.0 mi SE 12.7 mph 25.3 mph 0.01 in   Overcast
9:53 AM 37.0 °F 30.4 °F 36.0 °F 96% 29.48 in 5.0 mi SE 9.2 mph 27.6 mph 0.01 in   Overcast
10:53 AM 37.9 °F 29.2 °F 37.0 °F 97% 29.44 in 6.0 mi SE 15.0 mph 27.6 mph N/A   Overcast
11:53 AM 39.9 °F 31.8 °F 39.0 °F 97% 29.42 in 5.0 mi SE 15.0 mph 25.3 mph N/A   Overcast
12:32 PM 39.2 °F 32.0 °F 39.2 °F 100% 29.39 in 1.8 mi SSE 11.5 mph 20.7 mph N/A   Overcast
12:53 PM 41.0 °F 34.7 °F 39.9 °F 96% 29.40 in 2.5 mi SSE 10.4 mph 20.7 mph N/A   Overcast
1:01 PM 42.8 °F 36.6 °F 41.0 °F 93% 29.37 in 4.0 mi South 11.5 mph 20.7 mph N/A   Overcast
1:13 PM 42.8 °F 37.5 °F 39.2 °F 87% 29.37 in 6.0 mi South 9.2 mph - N/A   Overcast
1:53 PM 42.1 °F 33.9 °F 36.0 °F 79% 29.39 in 10.0 mi WSW 17.3 mph 20.7 mph N/A   Overcast
2:07 PM 42.8 °F 36.2 °F 33.8 °F 70% 29.37 in 10.0 mi WSW 12.7 mph - N/A   Overcast
2:53 PM 39.0 °F 30.6 °F 33.1 °F 79% 29.41 in 10.0 mi WSW 15.0 mph - 0.00 in Rain Light Rain
3:25 PM 37.4 °F 27.8 °F 33.8 °F 87% 29.40 in 9.0 mi WSW 17.3 mph - 0.00 in Rain Light Rain
3:38 PM 35.6 °F 26.2 °F 33.8 °F 93% 29.41 in 8.0 mi WSW 15.0 mph - 0.01 in Rain Light Rain
3:53 PM 36.0 °F 26.3 °F 33.1 °F 89% 29.43 in 8.0 mi WSW 16.1 mph 25.3 mph 0.01 in Rain Light Rain
4:34 PM 35.6 °F 29.2 °F 33.8 °F 93% 29.41 in 10.0 mi SW 8.1 mph - 0.01 in Rain Light Rain
4:53 PM 35.1 °F 27.4 °F 33.1 °F 92% 29.44 in 10.0 mi SW 10.4 mph - 0.01 in   Overcast
5:53 PM 33.1 °F 26.1 °F 32.0 °F 96% 29.45 in 3.0 mi WSW 8.1 mph - 0.01 in Snow Light Snow
6:01 PM 33.8 °F 25.3 °F 32.0 °F 93% 29.43 in 2.5 mi SW 11.5 mph 17.3 mph 0.01 in Snow Light Snow
6:15 PM 33.8 °F 24.3 °F 30.2 °F 87% 29.43 in 3.0 mi WSW 13.8 mph - 0.01 in Snow Light Snow
6:32 PM 33.8 °F 26.4 °F 30.2 °F 87% 29.44 in 2.0 mi WSW 9.2 mph - 0.01 in Snow Light Snow
6:40 PM 33.8 °F 27.7 °F 30.2 °F 87% 29.44 in 1.5 mi WSW 6.9 mph - 0.01 in Snow Light Snow
6:53 PM 33.1 °F 26.9 °F 30.9 °F 92% 29.46 in 2.0 mi SW 6.9 mph - 0.01 in Snow Light Snow
7:40 PM 33.8 °F 29.6 °F 32.0 °F 93% 29.45 in 1.8 mi SW 4.6 mph - 0.01 in Snow Light Snow
7:48 PM 33.8 °F 30.8 °F 32.0 °F 93% 29.45 in 1.5 mi SW 3.5 mph - 0.02 in Snow Light Snow
7:53 PM 32.0 °F 28.7 °F 32.0 °F 100% 29.47 in 1.8 mi SSW 3.5 mph - 0.02 in Snow Light Snow
8:02 PM 32.0 °F 28.7 °F 32.0 °F 100% 29.45 in 2.0 mi SSW 3.5 mph - 0.00 in Snow Light Snow
8:11 PM 32.0 °F 28.7 °F 30.2 °F 93% 29.45 in 1.8 mi SSW 3.5 mph - 0.00 in Snow Light Snow
8:17 PM 32.0 °F 28.7 °F 30.2 °F 93% 29.45 in 1.8 mi SSW 3.5 mph - 0.00 in Snow Light Snow
8:29 PM 32.0 °F 28.7 °F 30.2 °F 93% 29.45 in 1.5 mi SSW 3.5 mph - 0.00 in Snow Light Snow
8:53 PM 32.0 °F - 30.9 °F 96% 29.48 in 2.0 mi Calm Calm - 0.01 in Snow Light Snow
9:53 PM 30.9 °F 27.5 °F 30.0 °F 96% 29.49 in 2.5 mi SW 3.5 mph - 0.00 in   Overcast
10:16 PM 30.2 °F 26.7 °F 30.2 °F 100% 29.47 in 0.8 mi WSW 3.5 mph - N/A   Overcast
10:39 PM 30.2 °F 25.4 °F 28.4 °F 93% 29.49 in 1.0 mi West 4.6 mph - N/A   Scattered Clouds
10:50 PM 28.4 °F 22.2 °F 26.6 °F 93% 29.49 in 3.0 mi WSW 5.8 mph - N/A   Partly Cloudy
10:53 PM 28.0 °F 21.7 °F 28.0 °F 100% 29.52 in 3.0 mi WSW 5.8 mph - N/A   Partly Cloudy
11:21 PM 30.2 °F 22.6 °F 28.4 °F 93% 29.51 in 9.0 mi West 8.1 mph - N/A   Mostly Cloudy
11:36 PM 30.2 °F 22.6 °F 30.2 °F 100% 29.51 in 9.0 mi West 8.1 mph - N/A   Overcast
11:53 PM 32.0 °F 24.8 °F 28.9 °F 88% 29.54 in 9.0 mi WNW 8.1 mph - N/A   Mostly Cloudy